Pemba Airport

Airport
ICAO code: 
FQPB
IATA Code: 
POL
Summary
ICAO Region: 
AFI
Territory: 
Location: 
Pemba, Cabo Delgado
Serving: 
Pemba
Elevation: 
331 ft
Coordinates: 
Aerial View: 
12° 59' 30.091" S, 40° 31' 27.635" E
Metar
Observation
FQPB 062300Z 05007KT 9999 FEW020 27/24 Q1014
Station
Pemba
Date/Time
2021-12-06 23:00:00
Wind direction
50°
Wind speed
07 kts
Lowest cloud amount
few clouds
Temperature
27°C
Dew point
24°C
Humidity
83%
QNH
1014 hPa
Weather condition
n/a

Description

Airport serving the port city of Pemba/Porto Amelia Mozambique.

Climatology

Tropical Savanna climate (Köppen climate classification Aw) - monthly mean temperature above 18°C in every month of the year and a pronounced dry season.

Runways

Designator Length Width Surface Rops
8/26 800 30 ASP No/No
17/35 1800 45 ASP No/No
Airport map: 
Aerial View: 

SKYbrary Partners:

Safety knowledge contributed by: